Nampula, Moçambique

10:16 PM CAT em 23 de Março de 2017 (GMT +0200)
Nampula | | Change Station

Elev 1447 ft 15.10 °S, 39.28 °E | Updated 1 hour ago

Drizzle
Chuvisco
75 °F
Aparente 75 °F
N
5
Vento Variável Vento de Sul

Hoje
Máxima -- | Mínima -- °F
--% Possibilidade de Precip.
Ontem
Máxima -- | Mínima -- °F
Precip. -- pol
Pressão 29.98 pol
Visibilidade 5.6 milhas
Nuvens Nuvens Dispersas 1000 ft
Muito Nublado 2000 ft
Ponto de Orvalho 73 °F
Humidade 94%
Chuva 0.00 pol
Altura de Neve Não disponível
5:27 AM 5:31 PM
Quarto minguante, 21% visible
METAR FQNP 231900Z 17004KT 9000 DZ SCT010 BKN020 24/23 Q1015
Pressão 29.98 pol
Visibilidade 5.6 milhas
Nuvens Nuvens Dispersas 1000 ft
Muito Nublado 2000 ft
Ponto de Orvalho 73 °F
Humidade 94%
Chuva 0.00 pol
Altura de Neve Não disponível
5:27 AM 5:31 PM
Quarto minguante, 21% visible
METAR FQNP 231900Z 17004KT 9000 DZ SCT010 BKN020 24/23 Q1015

Get Severe Weather Alerts

Thanks for signing up!

Be on the lookout for a verification email in your inbox.

You'll start receiving the daily forecast at 8 AM.

×

10-Day Weather Forecast

No radar image for this location.
×

Almanac

Astronomia

Mar. 23, 2017 Nascer Pôr
Hora atual
Crepúsculo civil
Crepúsculo náutico
Crepúsculo astronómico
Lua
Comprimento da luz visível
Duração do Dia
Tomorrow will be .
, % of the Moon is Illuminated

Extremos de Hoje

Altitude na localidade Altura mais baixa na localidade

Community

WunderPhotos

Upload Photos

1,962,540 fotografias inseridas!

WunderBlog® & News

Nearby

Qualidade do Ar

  Qualidade do Ar Índice da Q.A. Poluente
Not available.

Altura da Neve

Estação altura Altitude

Actividade Sísmisca

Cidade Distância Mag. Hora & Data
Mínima magnitude apresentada é 2.5.

Actividade Sísmisca

Cidade Distância Mag. Hora & Data
Mínima magnitude apresentada é 2.5.

Temperaturas das Águas Costeiras

Local Temperatura

Stations

Estações Meteorológicas Próximas

Localização da Estação Temp. Sensação Térmica Ponto de Orvalho Humidade Vento Precip. Elev Actualizado Tipo